createdAt,value
2018-07-14T00:00:54.220Z,21.16
2018-07-14T00:03:22.797Z,21.19
2018-07-14T00:05:51.113Z,21.17
2018-07-14T00:08:19.595Z,21.11
2018-07-14T00:10:48.057Z,20.98
2018-07-14T00:13:17.002Z,21.12
2018-07-14T00:15:46.062Z,21.07
2018-07-14T00:18:14.804Z,20.92
2018-07-14T00:20:44.845Z,20.90
2018-07-14T00:23:13.825Z,20.87
2018-07-14T00:25:47.768Z,20.85
2018-07-14T00:28:16.888Z,20.91
2018-07-14T00:30:45.967Z,20.82
2018-07-14T00:33:14.246Z,20.74
2018-07-14T00:35:43.535Z,20.82
2018-07-14T00:38:11.812Z,20.92
2018-07-14T00:40:41.095Z,20.73
2018-07-14T00:43:09.487Z,20.72
2018-07-14T00:45:38.945Z,20.83
2018-07-14T00:48:08.520Z,20.81
2018-07-14T00:50:37.090Z,20.81
2018-07-14T00:53:05.748Z,20.69
2018-07-14T00:55:34.308Z,20.63
2018-07-14T00:58:03.177Z,20.59
2018-07-14T01:00:32.801Z,20.61
2018-07-14T01:03:02.758Z,20.56
2018-07-14T01:05:31.864Z,20.49
2018-07-14T01:08:00.187Z,20.47
2018-07-14T01:10:29.068Z,20.51
2018-07-14T01:13:03.953Z,20.63
2018-07-14T01:15:32.692Z,20.70
2018-07-14T01:18:01.070Z,20.74
2018-07-14T01:20:29.922Z,20.79
2018-07-14T01:22:58.960Z,20.85
2018-07-14T01:25:27.580Z,20.95
2018-07-14T01:27:55.913Z,20.90
2018-07-14T01:30:24.924Z,20.95
2018-07-14T01:32:53.185Z,21.01
2018-07-14T01:35:21.712Z,20.88
2018-07-14T01:37:50.685Z,20.79
2018-07-14T01:40:19.039Z,20.77
2018-07-14T01:42:48.165Z,20.77
2018-07-14T01:45:16.908Z,20.71
2018-07-14T01:47:46.798Z,20.63
2018-07-14T01:50:15.753Z,20.68
2018-07-14T01:52:47.240Z,20.78
2018-07-14T01:55:18.157Z,20.80
2018-07-14T01:57:47.122Z,20.84
2018-07-14T02:00:16.366Z,20.69
2018-07-14T02:02:44.671Z,20.54
2018-07-14T02:05:13.252Z,20.54
2018-07-14T02:07:42.231Z,20.52
2018-07-14T02:10:10.798Z,20.50
2018-07-14T02:12:39.280Z,20.44
2018-07-14T02:15:09.837Z,20.38
2018-07-14T02:17:38.830Z,20.36
2018-07-14T02:20:07.470Z,20.28
2018-07-14T02:22:36.359Z,20.22
2018-07-14T02:25:05.452Z,20.20
2018-07-14T02:27:33.778Z,20.15
2018-07-14T02:30:02.159Z,20.06
2018-07-14T02:32:30.472Z,20.02
2018-07-14T02:35:00.363Z,19.99
2018-07-14T02:37:29.332Z,19.96
2018-07-14T02:39:58.364Z,19.98
2018-07-14T02:42:27.053Z,20.02
2018-07-14T02:44:57.138Z,20.00
2018-07-14T02:47:26.104Z,20.01
2018-07-14T02:49:54.398Z,20.07
2018-07-14T02:52:23.460Z,20.01
2018-07-14T02:54:51.809Z,19.96
2018-07-14T02:57:20.877Z,19.89
2018-07-14T02:59:49.742Z,19.85
2018-07-14T03:02:18.394Z,19.84
2018-07-14T03:04:46.817Z,19.87
2018-07-14T03:07:15.447Z,19.87
2018-07-14T03:09:43.755Z,19.88
2018-07-14T03:12:12.060Z,19.87
2018-07-14T03:14:41.268Z,19.74
2018-07-14T03:17:10.049Z,19.61
2018-07-14T03:19:38.294Z,19.62
2018-07-14T03:22:07.410Z,19.67
2018-07-14T03:24:35.636Z,19.65
2018-07-14T03:27:03.932Z,19.61
2018-07-14T03:29:32.330Z,19.47
2018-07-14T03:32:00.972Z,19.42
2018-07-14T03:34:29.253Z,19.46
2018-07-14T03:36:57.497Z,19.51
2018-07-14T03:39:26.450Z,19.57
2018-07-14T03:41:55.967Z,19.55
2018-07-14T03:44:24.223Z,19.50
2018-07-14T03:46:52.509Z,19.51
2018-07-14T03:49:20.750Z,19.50
2018-07-14T03:51:50.024Z,19.54
2018-07-14T03:54:18.501Z,19.63
2018-07-14T03:56:47.169Z,19.61
2018-07-14T03:59:15.632Z,19.56
2018-07-14T04:01:43.990Z,19.46
2018-07-14T04:04:12.261Z,19.41
2018-07-14T04:06:40.529Z,19.29
2018-07-14T04:09:08.858Z,19.27
2018-07-14T04:11:37.673Z,19.20
2018-07-14T04:14:06.433Z,19.26
2018-07-14T04:16:34.717Z,19.26
2018-07-14T04:19:02.982Z,19.27
2018-07-14T04:21:32.821Z,19.26
2018-07-14T04:24:01.059Z,19.31
2018-07-14T04:26:30.489Z,19.35
2018-07-14T04:28:59.076Z,19.45
2018-07-14T04:31:27.264Z,19.56
2018-07-14T04:33:55.996Z,19.68
2018-07-14T04:36:24.496Z,19.68
2018-07-14T04:38:53.324Z,19.68
2018-07-14T04:41:21.562Z,19.76
2018-07-14T04:43:51.201Z,19.91
2018-07-14T04:46:19.508Z,20.05
2018-07-14T04:48:48.898Z,20.32
2018-07-14T04:51:17.161Z,20.39
2018-07-14T04:53:45.397Z,20.50
2018-07-14T04:56:13.944Z,20.65
2018-07-14T04:58:42.628Z,20.46
2018-07-14T05:01:10.941Z,20.34
2018-07-14T05:03:40.159Z,20.34
2018-07-14T05:06:08.632Z,20.20
2018-07-14T05:08:37.910Z,20.18
2018-07-14T05:11:06.173Z,20.19
2018-07-14T05:13:34.878Z,20.19
2018-07-14T05:16:03.127Z,20.27
2018-07-14T05:18:31.399Z,20.48
2018-07-14T05:20:59.738Z,20.49
2018-07-14T05:23:28.000Z,20.69
2018-07-14T05:25:57.314Z,20.63
2018-07-14T05:28:25.843Z,20.74
2018-07-14T05:30:54.114Z,20.81
2018-07-14T05:33:23.939Z,20.84
2018-07-14T05:35:52.313Z,20.94
2018-07-14T05:38:20.547Z,21.17
2018-07-14T05:40:49.280Z,21.28
2018-07-14T05:43:17.593Z,21.31
2018-07-14T05:45:46.418Z,21.54
2018-07-14T05:48:15.649Z,21.50
2018-07-14T05:50:43.943Z,21.70
2018-07-14T05:53:12.328Z,21.62
2018-07-14T05:55:40.780Z,21.56
2018-07-14T05:58:10.707Z,21.61
2018-07-14T06:00:39.074Z,21.72
2018-07-14T06:03:07.566Z,21.91
2018-07-14T06:05:35.937Z,22.19
2018-07-14T06:08:04.527Z,22.27
2018-07-14T06:10:33.268Z,22.51
2018-07-14T06:13:01.937Z,22.38
2018-07-14T06:15:30.538Z,22.54
2018-07-14T06:17:59.500Z,22.19
2018-07-14T06:20:29.683Z,22.35
2018-07-14T06:22:58.540Z,22.10
2018-07-14T06:25:26.984Z,22.33
2018-07-14T06:27:55.882Z,22.47
2018-07-14T06:30:24.540Z,22.34
2018-07-14T06:32:53.689Z,22.84
2018-07-14T06:35:21.946Z,23.08
2018-07-14T06:37:50.878Z,23.07
2018-07-14T06:40:20.202Z,23.11
2018-07-14T06:42:49.595Z,23.10
2018-07-14T06:45:17.944Z,23.27
2018-07-14T06:47:46.809Z,23.47
2018-07-14T06:50:15.349Z,23.57
2018-07-14T06:52:44.357Z,24.01
2018-07-14T06:55:12.651Z,23.74
2018-07-14T06:57:41.501Z,24.02
2018-07-14T07:00:09.816Z,24.33
2018-07-14T07:02:38.635Z,24.36
2018-07-14T07:05:06.904Z,24.33
2018-07-14T07:07:35.410Z,24.67
2018-07-14T07:10:04.277Z,24.73
2018-07-14T07:12:33.026Z,24.60
2018-07-14T07:15:02.258Z,24.54
2018-07-14T07:17:31.818Z,24.19
2018-07-14T07:20:00.065Z,24.35
2018-07-14T07:22:28.860Z,24.72
2018-07-14T07:24:57.240Z,24.86
2018-07-14T07:27:25.587Z,24.83
2018-07-14T07:29:54.049Z,24.87
2018-07-14T07:32:23.033Z,24.41
2018-07-14T07:34:51.687Z,25.02
2018-07-14T07:37:19.948Z,25.47
2018-07-14T07:39:48.543Z,25.46
2018-07-14T07:42:16.856Z,25.48
2018-07-14T07:44:45.633Z,25.49
2018-07-14T07:47:15.315Z,25.80
2018-07-14T07:49:44.443Z,25.26
2018-07-14T07:52:16.501Z,25.49
2018-07-14T07:54:44.917Z,25.76
2018-07-14T07:57:13.343Z,25.99
2018-07-14T07:59:41.627Z,25.99
2018-07-14T08:02:11.138Z,25.65
2018-07-14T08:04:39.662Z,26.03
2018-07-14T08:07:08.416Z,25.80
2018-07-14T08:09:36.856Z,26.08
2018-07-14T08:12:05.132Z,26.26
2018-07-14T08:14:33.726Z,26.62
2018-07-14T08:17:03.037Z,26.48
2018-07-14T08:19:32.182Z,26.45
2018-07-14T08:22:00.465Z,26.84
2018-07-14T08:24:29.161Z,26.85
2018-07-14T08:26:57.377Z,27.13
2018-07-14T08:29:25.651Z,27.21
2018-07-14T08:31:53.919Z,27.09
2018-07-14T08:34:22.455Z,27.22
2018-07-14T08:36:53.039Z,27.49
2018-07-14T08:39:21.430Z,27.45
2018-07-14T08:41:50.040Z,27.82
2018-07-14T08:44:18.334Z,27.68
2018-07-14T08:46:46.576Z,28.05
2018-07-14T08:49:15.934Z,27.97
2018-07-14T08:51:44.583Z,27.72
2018-07-14T08:54:12.892Z,28.04
2018-07-14T08:56:42.153Z,28.06
2018-07-14T08:59:10.814Z,28.09
2018-07-14T09:01:39.884Z,28.24
2018-07-14T09:04:08.295Z,27.92
2018-07-14T09:06:37.409Z,27.82
2018-07-14T09:09:07.230Z,27.89
2018-07-14T09:11:35.541Z,27.77
2018-07-14T09:14:03.881Z,27.61
2018-07-14T09:16:32.953Z,27.49
2018-07-14T09:19:01.285Z,27.72
2018-07-14T09:21:29.535Z,27.93
2018-07-14T09:23:57.808Z,27.91
2018-07-14T09:26:26.963Z,28.10
2018-07-14T09:28:55.461Z,28.48
2018-07-14T09:31:23.797Z,28.55
2018-07-14T09:33:53.823Z,28.45
2018-07-14T09:36:22.042Z,28.74
2018-07-14T09:38:50.411Z,29.18
2018-07-14T09:41:18.733Z,29.70
2018-07-14T09:43:47.226Z,30.01
2018-07-14T09:46:15.655Z,29.90
2018-07-14T09:48:44.240Z,30.24
2018-07-14T09:51:13.401Z,29.98
2018-07-14T09:53:41.659Z,29.97
2018-07-14T09:56:10.079Z,30.26
2018-07-14T09:58:38.460Z,30.05
2018-07-14T10:01:09.159Z,29.98
2018-07-14T10:03:38.333Z,30.00
2018-07-14T10:06:07.470Z,30.71
2018-07-14T10:08:35.810Z,30.96
2018-07-14T10:11:04.095Z,30.86
2018-07-14T10:13:32.647Z,31.32
2018-07-14T10:16:01.515Z,30.53
2018-07-14T10:18:29.909Z,30.42
2018-07-14T10:20:58.434Z,30.44
2018-07-14T10:23:26.689Z,30.15
2018-07-14T10:25:55.730Z,30.46
2018-07-14T10:28:24.236Z,30.21
2018-07-14T10:30:53.139Z,30.18
2018-07-14T10:33:21.643Z,30.84
2018-07-14T10:35:51.251Z,31.17
2018-07-14T10:38:19.706Z,30.79
2018-07-14T10:40:47.899Z,30.69
2018-07-14T10:43:16.125Z,31.29
2018-07-14T10:45:44.340Z,31.32
2018-07-14T10:48:12.840Z,31.37
2018-07-14T10:50:41.387Z,31.22
2018-07-14T10:53:10.165Z,31.22
2018-07-14T10:55:38.430Z,30.82
2018-07-14T10:58:07.008Z,30.69
2018-07-14T11:00:36.767Z,31.05
2018-07-14T11:03:05.278Z,31.27
2018-07-14T11:05:34.016Z,31.47
2018-07-14T11:08:02.445Z,31.79
2018-07-14T11:10:30.685Z,31.99
2018-07-14T11:12:59.112Z,31.99
2018-07-14T11:15:27.933Z,31.93
2018-07-14T11:17:56.555Z,31.32
2018-07-14T11:20:24.614Z,31.16
2018-07-14T11:22:54.064Z,30.85
2018-07-14T11:25:22.434Z,30.67
2018-07-14T11:27:50.732Z,30.96
2018-07-14T11:30:19.175Z,31.18
2018-07-14T11:32:47.313Z,31.51
2018-07-14T11:35:16.196Z,31.69
2018-07-14T11:37:44.788Z,32.73
2018-07-14T11:40:13.211Z,33.12
2018-07-14T11:42:41.563Z,33.50
2018-07-14T11:45:10.148Z,33.46
2018-07-14T11:47:38.820Z,33.99
2018-07-14T11:50:07.321Z,32.61
2018-07-14T11:52:35.580Z,32.81
2018-07-14T11:55:04.177Z,32.84
2018-07-14T11:57:32.699Z,32.32
2018-07-14T12:00:01.280Z,32.54
2018-07-14T12:02:29.812Z,32.89
2018-07-14T12:04:58.074Z,33.39
2018-07-14T12:07:26.391Z,33.22
2018-07-14T12:09:54.649Z,32.31
2018-07-14T12:12:23.361Z,32.80
2018-07-14T12:14:51.968Z,33.17
2018-07-14T12:17:20.266Z,33.47
2018-07-14T12:19:48.564Z,33.41
2018-07-14T12:22:17.172Z,33.49
2018-07-14T12:24:45.422Z,34.10
2018-07-14T12:27:13.678Z,34.70
2018-07-14T12:29:41.885Z,34.99
2018-07-14T12:32:10.436Z,34.29
2018-07-14T12:34:39.073Z,34.01
2018-07-14T12:37:08.369Z,33.94
2018-07-14T12:39:36.612Z,33.16
2018-07-14T12:42:05.109Z,32.94
2018-07-14T12:44:34.560Z,32.77
2018-07-14T12:47:02.772Z,32.55
2018-07-14T12:49:31.044Z,31.87
2018-07-14T12:51:59.533Z,32.30
2018-07-14T12:54:28.193Z,32.92
2018-07-14T12:56:56.694Z,32.65
2018-07-14T12:59:25.723Z,32.32
2018-07-14T13:01:54.001Z,31.99
2018-07-14T13:04:22.445Z,31.74
2018-07-14T13:06:51.107Z,32.24
2018-07-14T13:09:19.680Z,32.68
2018-07-14T13:11:48.008Z,32.44
2018-07-14T13:14:16.268Z,32.33
2018-07-14T13:16:45.445Z,33.03
2018-07-14T13:19:14.024Z,32.85
2018-07-14T13:21:42.289Z,32.52
2018-07-14T13:24:10.786Z,32.66
2018-07-14T13:26:38.996Z,32.26
2018-07-14T13:29:07.222Z,32.85
2018-07-14T13:31:35.665Z,32.72
2018-07-14T13:34:05.277Z,33.74
2018-07-14T13:36:33.520Z,34.48
2018-07-14T13:39:01.856Z,34.39
2018-07-14T13:41:30.079Z,34.45
2018-07-14T13:43:58.292Z,34.88
2018-07-14T13:46:26.989Z,34.40
2018-07-14T13:48:55.336Z,33.10
2018-07-14T13:51:23.903Z,33.18
2018-07-14T13:53:52.242Z,33.17
2018-07-14T13:56:20.426Z,33.60
2018-07-14T13:58:48.728Z,33.43
2018-07-14T14:01:17.785Z,33.29
2018-07-14T14:03:46.093Z,33.47
2018-07-14T14:06:14.582Z,33.20
2018-07-14T14:08:42.787Z,33.18
2018-07-14T14:11:11.233Z,33.18
2018-07-14T14:13:39.553Z,33.43
2018-07-14T14:16:08.880Z,33.87
2018-07-14T14:18:37.142Z,35.05
2018-07-14T14:21:05.576Z,36.62
2018-07-14T14:23:33.797Z,37.64
2018-07-14T14:26:01.953Z,36.11
2018-07-14T14:28:30.562Z,34.93
2018-07-14T14:30:59.321Z,34.93
2018-07-14T14:33:27.616Z,34.57
2018-07-14T14:35:55.820Z,35.04
2018-07-14T14:38:24.271Z,38.77
2018-07-14T14:40:52.464Z,41.53
2018-07-14T14:43:21.570Z,39.97
2018-07-14T14:45:49.907Z,39.21
2018-07-14T14:48:18.587Z,41.19
2018-07-14T14:50:46.771Z,42.67
2018-07-14T14:53:15.084Z,42.66
2018-07-14T14:55:43.264Z,42.64
2018-07-14T14:58:11.508Z,40.41
2018-07-14T15:00:39.866Z,40.20
2018-07-14T15:03:08.687Z,39.57
2018-07-14T15:05:36.936Z,37.53
2018-07-14T15:08:05.143Z,36.80
2018-07-14T15:10:33.321Z,37.26
2018-07-14T15:13:01.898Z,37.62
2018-07-14T15:15:30.535Z,38.51
2018-07-14T15:17:59.115Z,38.11
2018-07-14T15:20:27.592Z,39.01
2018-07-14T15:22:56.101Z,39.99
2018-07-14T15:25:24.561Z,42.01
2018-07-14T15:27:52.777Z,43.25
2018-07-14T15:30:21.258Z,43.92
2018-07-14T15:32:49.835Z,43.89
2018-07-14T15:35:18.322Z,43.71
2018-07-14T15:37:46.904Z,42.18
2018-07-14T15:40:15.502Z,40.27
2018-07-14T15:42:43.744Z,38.41
2018-07-14T15:45:12.026Z,40.36
2018-07-14T15:47:40.549Z,42.65
2018-07-14T15:50:09.009Z,44.32
2018-07-14T15:52:37.262Z,45.20
2018-07-14T15:55:05.827Z,44.11
2018-07-14T15:57:34.078Z,45.36
2018-07-14T16:00:02.280Z,44.97
2018-07-14T16:02:30.897Z,43.73
2018-07-14T16:04:59.482Z,43.12
2018-07-14T16:07:27.992Z,41.91
2018-07-14T16:09:56.235Z,40.52
2018-07-14T16:12:24.583Z,40.65
2018-07-14T16:14:53.233Z,41.63
2018-07-14T16:17:21.801Z,42.98
2018-07-14T16:19:50.026Z,42.47
2018-07-14T16:22:18.256Z,42.26
2018-07-14T16:24:46.490Z,40.11
2018-07-14T16:27:14.776Z,39.10
2018-07-14T16:29:43.008Z,36.86
2018-07-14T16:32:11.325Z,35.90
2018-07-14T16:34:39.542Z,35.88
2018-07-14T16:37:07.848Z,35.64
2018-07-14T16:39:36.066Z,35.29
2018-07-14T16:42:04.769Z,34.41
2018-07-14T16:44:33.122Z,34.12
2018-07-14T16:47:01.395Z,34.43
2018-07-14T16:49:29.650Z,33.93
2018-07-14T16:51:58.193Z,34.19
2018-07-14T16:54:26.557Z,34.29
2018-07-14T16:56:55.023Z,35.84
2018-07-14T16:59:24.220Z,36.54
2018-07-14T17:01:52.462Z,37.32
2018-07-14T17:04:21.012Z,36.07
2018-07-14T17:06:49.249Z,35.89
2018-07-14T17:09:17.861Z,34.75
2018-07-14T17:11:46.052Z,33.48
2018-07-14T17:14:14.545Z,32.63
2018-07-14T17:16:43.125Z,32.29
2018-07-14T17:19:11.422Z,32.63
2018-07-14T17:21:39.928Z,32.54
2018-07-14T17:24:08.180Z,32.36
2018-07-14T17:26:36.504Z,31.77
2018-07-14T17:29:06.087Z,31.90
2018-07-14T17:31:34.757Z,32.01
2018-07-14T17:34:02.969Z,32.63
2018-07-14T17:36:31.526Z,33.55
2018-07-14T17:38:59.915Z,33.27
2018-07-14T17:41:28.597Z,32.59
2018-07-14T17:43:56.919Z,32.09
2018-07-14T17:46:25.385Z,32.07
2018-07-14T17:48:53.653Z,32.12
2018-07-14T17:51:21.866Z,32.00
2018-07-14T17:53:50.138Z,32.94
2018-07-14T17:56:18.745Z,33.67
2018-07-14T17:58:47.150Z,33.61
2018-07-14T18:01:15.748Z,32.63
2018-07-14T18:03:44.020Z,31.98
2018-07-14T18:06:12.530Z,32.10
2018-07-14T18:08:40.840Z,31.89
2018-07-14T18:11:09.465Z,31.43
2018-07-14T18:13:38.128Z,31.61
2018-07-14T18:16:07.047Z,31.32
2018-07-14T18:18:35.750Z,31.17
2018-07-14T18:21:03.949Z,30.70
2018-07-14T18:23:32.527Z,30.69
2018-07-14T18:26:00.757Z,30.96
2018-07-14T18:28:29.175Z,30.79
2018-07-14T18:30:57.391Z,30.70
2018-07-14T18:33:26.637Z,30.51
2018-07-14T18:35:55.183Z,30.06
2018-07-14T18:38:23.391Z,29.83
2018-07-14T18:40:51.662Z,29.78
2018-07-14T18:43:20.001Z,29.82
2018-07-14T18:45:48.509Z,29.82
2018-07-14T18:48:16.791Z,29.45
2018-07-14T18:50:45.447Z,29.03
2018-07-14T18:53:13.678Z,29.06
2018-07-14T18:55:42.227Z,28.91
2018-07-14T18:58:10.511Z,28.65
2018-07-14T19:00:38.855Z,28.51
2018-07-14T19:03:07.170Z,28.18
2018-07-14T19:05:35.969Z,27.90
2018-07-14T19:08:05.412Z,27.72
2018-07-14T19:10:33.668Z,27.74
2018-07-14T19:13:01.983Z,27.59
2018-07-14T19:15:30.848Z,27.65
2018-07-14T19:17:59.507Z,27.54
2018-07-14T19:20:28.068Z,27.53
2018-07-14T19:22:57.267Z,27.35
2018-07-14T19:25:25.546Z,27.21
2018-07-14T19:27:53.929Z,27.12
2018-07-14T19:30:22.415Z,26.87
2018-07-14T19:32:51.064Z,26.77
2018-07-14T19:35:19.263Z,26.77
2018-07-14T19:37:47.808Z,26.43
2018-07-14T19:40:16.066Z,26.22
2018-07-14T19:42:44.591Z,26.29
2018-07-14T19:45:12.796Z,26.20
2018-07-14T19:47:41.946Z,26.27
2018-07-14T19:50:10.132Z,25.99
2018-07-14T19:52:38.407Z,25.91
2018-07-14T19:55:06.648Z,25.87
2018-07-14T19:57:34.897Z,25.89
2018-07-14T20:00:03.157Z,25.73
2018-07-14T20:02:31.414Z,25.57
2018-07-14T20:04:59.612Z,25.46
2018-07-14T20:07:28.454Z,25.57
2018-07-14T20:09:56.721Z,25.54
2018-07-14T20:12:26.322Z,25.52
2018-07-14T20:14:54.830Z,25.45
2018-07-14T20:17:23.044Z,25.32
2018-07-14T20:19:51.344Z,25.35
2018-07-14T20:22:19.909Z,25.10
2018-07-14T20:24:48.459Z,24.90
2018-07-14T20:27:16.728Z,24.95
2018-07-14T20:29:45.267Z,24.96
2018-07-14T20:32:13.881Z,24.82
2018-07-14T20:34:42.141Z,24.74
2018-07-14T20:37:10.359Z,24.72
2018-07-14T20:39:38.623Z,24.74
2018-07-14T20:42:07.537Z,24.61
2018-07-14T20:44:35.966Z,24.61
2018-07-14T20:47:04.609Z,24.67
2018-07-14T20:49:32.781Z,24.57
2018-07-14T20:52:01.278Z,24.45
2018-07-14T20:54:30.092Z,24.32
2018-07-14T20:56:58.846Z,24.14
2018-07-14T20:59:27.589Z,23.96
2018-07-14T21:01:55.874Z,24.11
2018-07-14T21:04:24.437Z,24.02
2018-07-14T21:06:52.953Z,23.88
2018-07-14T21:09:21.288Z,23.86
2018-07-14T21:11:49.943Z,23.77
2018-07-14T21:14:18.160Z,23.73
2018-07-14T21:16:46.404Z,23.73
2018-07-14T21:19:14.927Z,23.71
2018-07-14T21:21:44.526Z,23.66
2018-07-14T21:24:12.756Z,23.59
2018-07-14T21:26:41.017Z,23.52
2018-07-14T21:29:09.203Z,23.50
2018-07-14T21:31:37.774Z,23.41
2018-07-14T21:34:06.308Z,23.38
2018-07-14T21:36:34.889Z,23.46
2018-07-14T21:39:04.414Z,23.45
2018-07-14T21:41:33.043Z,23.47
2018-07-14T21:44:01.310Z,23.50
2018-07-14T21:46:29.552Z,23.47
2018-07-14T21:48:57.897Z,23.36
2018-07-14T21:51:26.362Z,23.36
2018-07-14T21:53:55.641Z,23.28
2018-07-14T21:56:24.260Z,23.18
2018-07-14T21:58:52.630Z,23.21
2018-07-14T22:01:26.438Z,23.23
2018-07-14T22:03:54.740Z,23.12
2018-07-14T22:06:23.294Z,23.08
2018-07-14T22:08:51.576Z,23.00
2018-07-14T22:11:20.120Z,22.91
2018-07-14T22:13:48.865Z,22.88
2018-07-14T22:16:17.082Z,22.95
2018-07-14T22:18:45.347Z,22.87
2018-07-14T22:21:13.632Z,22.80
2018-07-14T22:23:42.065Z,22.85
2018-07-14T22:26:10.410Z,22.71
2018-07-14T22:28:38.602Z,22.52
2018-07-14T22:31:07.067Z,22.37
2018-07-14T22:33:35.317Z,22.32
2018-07-14T22:36:03.574Z,22.26
2018-07-14T22:38:31.771Z,22.21
2018-07-14T22:41:00.005Z,22.21
2018-07-14T22:43:28.299Z,22.35
2018-07-14T22:45:56.857Z,22.41
2018-07-14T22:48:25.717Z,22.38
2018-07-14T22:50:53.934Z,22.28
2018-07-14T22:53:22.572Z,22.25
2018-07-14T22:55:51.093Z,22.17
2018-07-14T22:58:19.333Z,22.15
2018-07-14T23:00:48.120Z,22.05
2018-07-14T23:03:16.424Z,21.94
2018-07-14T23:05:44.793Z,21.82
2018-07-14T23:08:13.081Z,21.78
2018-07-14T23:10:41.317Z,21.82
2018-07-14T23:13:10.254Z,21.76
2018-07-14T23:15:38.529Z,21.67
2018-07-14T23:18:06.804Z,21.63
2018-07-14T23:20:35.347Z,21.58
2018-07-14T23:23:03.609Z,21.51
2018-07-14T23:25:32.115Z,21.51
2018-07-14T23:28:00.488Z,21.54
2018-07-14T23:30:28.714Z,21.54
2018-07-14T23:32:56.967Z,21.51
2018-07-14T23:35:25.204Z,21.42
2018-07-14T23:37:53.531Z,21.36
2018-07-14T23:40:21.737Z,21.22
2018-07-14T23:42:50.498Z,21.14
2018-07-14T23:45:19.032Z,21.11
2018-07-14T23:47:48.928Z,21.04
2018-07-14T23:50:18.136Z,21.00
2018-07-14T23:52:46.602Z,20.94
2018-07-14T23:55:14.789Z,20.87
2018-07-14T23:57:43.029Z,20.88
